Weather History for KEXX - October, 2012

Change the Weather History Date:

Monday, October 8, 2012

  Actual Average (WUND) Record (WUND)
Temperature  
Mean Temperature 46 °F -  
Max Temperature 50 °F - - (-1)
Min Temperature 42 °F - - (-1)
Degree Days  
Heating Degree Days 19    
Moisture  
Dew Point 45 °F    
Average Humidity 95    
Maximum Humidity 100    
Minimum Humidity 81    
Precipitation  
Precipitation 0.19 in - - ()
Sea Level Pressure  
Sea Level Pressure 30.18 in    
Wind  
Wind Speed 3 mph (NNE)    
Max Wind Speed 8 mph    
Max Gust Speed -    
Visibility 8 miles    
Events Rain    
Averages and records for this station are not official NWS values.
T = Trace of Precipitation, MM = Missing Value Source: NWS Daily Summary

Daily Weather History Graph

Daily Weather History Graph

Search for Another Location

Airport or City:

Trip Planner

Search our weather history database for the weather conditions in past years. The results will help you decide how hot, cold, wet, or windy it might be!

Date:

Astronomy

Oct. 08, 2012 Rise Set
Actual Time 7:22 AM EDT 6:54 PM EDT
Civil Twilight 6:56 AM EDT 7:19 PM EDT
Nautical Twilight 6:27 AM EDT 7:49 PM EDT
Astronomical Twilight 5:57 AM EDT 8:19 PM EDT
Moon 12:13 AM EDT (10/8) 2:30 PM EDT (10/8)
Length of Visible Light 12h 23m
Length of Day
11h 32m
Waning Gibbous, 46% of the Moon is Illuminated
Oct 8
Waning Gibbous
Oct 15
New
Oct 21
First Quarter
Oct 29
Full
Nov 6
Last Quarter

Hourly Weather History & Observations

Time (EDT) Temp. Windchill Dew Point Humidity Pressure Visibility Wind Dir Wind Speed Gust Speed Precip Events Conditions
12:15 AM 50.0 °F - 50.0 °F 100% 30.16 in 10.0 mi Calm Calm - N/A   Unknown
12:35 AM 50.0 °F - 50.0 °F 100% 30.15 in 10.0 mi Calm Calm - N/A   Unknown
12:55 AM 50.0 °F - 48.2 °F 94% 30.16 in 10.0 mi North 3.5 mph - N/A   Unknown
1:15 AM 50.0 °F - 46.4 °F 87% 30.15 in 10.0 mi Calm Calm - N/A   Unknown
1:35 AM 50.0 °F - 46.4 °F 87% 30.15 in 10.0 mi NNE 3.5 mph - N/A   Unknown
1:55 AM 48.2 °F - 44.6 °F 87% 30.15 in 10.0 mi NE 3.5 mph - N/A   Unknown
2:15 AM 48.2 °F - 44.6 °F 87% 30.16 in 10.0 mi Calm Calm - N/A   Unknown
2:35 AM 48.2 °F - 44.6 °F 87% 30.16 in 10.0 mi NNE 3.5 mph - N/A   Unknown
2:55 AM 48.2 °F - 44.6 °F 87% 30.16 in 10.0 mi Calm Calm - N/A   Unknown
3:15 AM 48.2 °F - 46.4 °F 93% 30.15 in 10.0 mi Calm Calm - N/A   Unknown
3:35 AM 48.2 °F - 44.6 °F 87% 30.15 in 10.0 mi Calm Calm - N/A   Unknown
3:55 AM 48.2 °F - 44.6 °F 87% 30.16 in 10.0 mi Calm Calm - N/A   Unknown
4:15 AM 48.2 °F - 44.6 °F 87% 30.16 in 10.0 mi Calm Calm - N/A   Unknown
4:35 AM 48.2 °F - 44.6 °F 87% 30.14 in 10.0 mi NNE 3.5 mph - N/A   Unknown
4:55 AM 48.2 °F - 42.8 °F 82% 30.15 in 10.0 mi NNE 5.8 mph - N/A   Unknown
5:15 AM 48.2 °F - 42.8 °F 82% 30.16 in 10.0 mi NE 4.6 mph - N/A   Unknown
5:55 AM 46.4 °F 45.2 °F 41.0 °F 81% 30.17 in 10.0 mi North 3.5 mph - N/A   Unknown
6:15 AM 46.4 °F 45.2 °F 41.0 °F 81% 30.19 in 10.0 mi North 3.5 mph - N/A   Unknown
6:35 AM 46.4 °F 45.2 °F 42.8 °F 87% 30.19 in 10.0 mi NNE 3.5 mph - N/A   Drizzle
6:55 AM 46.4 °F - 42.8 °F 87% 30.19 in 10.0 mi Calm Calm - N/A   Drizzle
7:15 AM 46.4 °F 45.2 °F 42.8 °F 87% 30.19 in 10.0 mi North 3.5 mph - N/A   Light Drizzle
7:35 AM 46.4 °F 45.2 °F 41.0 °F 81% 30.19 in 10.0 mi NNE 3.5 mph - N/A   Unknown
7:55 AM 46.4 °F 43.5 °F 41.0 °F 81% 30.19 in 10.0 mi NNE 5.8 mph - N/A   Unknown
8:15 AM 46.4 °F 44.3 °F 42.8 °F 87% 30.20 in 7.0 mi NNE 4.6 mph - N/A Rain Rain
8:35 AM 44.6 °F 43.1 °F 44.6 °F 100% 30.20 in 10.0 mi North 3.5 mph - 0.01 in Rain Light Rain
8:55 AM 44.6 °F 43.1 °F 44.6 °F 100% 30.20 in 10.0 mi North 3.5 mph - 0.02 in Rain Rain
9:15 AM 46.4 °F 45.2 °F 46.4 °F 100% 30.20 in 10.0 mi NE 3.5 mph - N/A   Unknown
9:35 AM 46.4 °F 45.2 °F 46.4 °F 100% 30.20 in 10.0 mi NE 3.5 mph - 0.01 in   Unknown
9:55 AM 46.4 °F 44.3 °F 46.4 °F 100% 30.20 in 10.0 mi NNE 4.6 mph - 0.01 in   Unknown
10:15 AM 46.4 °F 45.2 °F 46.4 °F 100% 30.21 in 10.0 mi NE 3.5 mph - N/A   Unknown
10:55 AM 46.4 °F 42.9 °F 46.4 °F 100% 30.21 in 10.0 mi NE 6.9 mph - 0.01 in   Unknown
11:15 AM 46.4 °F - 46.4 °F 100% 30.22 in 10.0 mi Calm Calm - N/A   Unknown
11:35 AM 46.4 °F 42.4 °F 46.4 °F 100% 30.22 in 7.0 mi NNE 8.1 mph - N/A Rain Light Rain
11:55 AM 46.4 °F 44.3 °F 46.4 °F 100% 30.22 in 10.0 mi NE 4.6 mph - 0.01 in   Unknown
12:15 PM 46.4 °F - 46.4 °F 100% 30.23 in 10.0 mi Calm Calm - N/A   Light Drizzle
12:35 PM 46.4 °F 44.3 °F 46.4 °F 100% 30.22 in 5.0 mi NNE 4.6 mph - N/A Rain Rain
12:55 PM 46.4 °F 43.5 °F 46.4 °F 100% 30.22 in 5.0 mi NNE 5.8 mph - N/A Rain Light Rain
1:15 PM 44.6 °F 41.4 °F 44.6 °F 100% 30.20 in 7.0 mi NE 5.8 mph - N/A   Light Drizzle
1:35 PM 46.4 °F 44.3 °F 46.4 °F 100% 30.20 in 7.0 mi NE 4.6 mph - N/A   Unknown
1:55 PM 46.4 °F 44.3 °F 46.4 °F 100% 30.19 in 10.0 mi North 4.6 mph - 0.01 in   Unknown
2:15 PM 44.6 °F 42.2 °F 44.6 °F 100% 30.18 in 7.0 mi NNE 4.6 mph - N/A   Unknown
2:35 PM 44.6 °F 40.7 °F 44.6 °F 100% 30.17 in 5.0 mi NNE 6.9 mph - N/A   Mist
2:55 PM 44.6 °F 40.7 °F 44.6 °F 100% 30.16 in 4.0 mi NE 6.9 mph - N/A   Mist
3:15 PM 44.6 °F 42.2 °F 44.6 °F 100% 30.17 in 7.0 mi NNE 4.6 mph - N/A   Unknown
3:35 PM 44.6 °F 42.2 °F 44.6 °F 100% 30.16 in 5.0 mi NNE 4.6 mph - N/A   Mist
4:15 PM 44.6 °F 41.4 °F 44.6 °F 100% 30.15 in 7.0 mi NNE 5.8 mph - N/A   Unknown
4:35 PM 44.6 °F 43.1 °F 44.6 °F 100% 30.15 in 7.0 mi NE 3.5 mph - N/A   Unknown
4:55 PM 44.6 °F 41.4 °F 44.6 °F 100% 30.15 in 7.0 mi North 5.8 mph - N/A   Unknown
5:15 PM 44.6 °F 42.2 °F 44.6 °F 100% 30.16 in 7.0 mi North 4.6 mph - N/A   Unknown
5:35 PM 44.6 °F 43.1 °F 44.6 °F 100% 30.15 in 3.0 mi North 3.5 mph - N/A   Mist
5:55 PM 44.6 °F 43.1 °F 44.6 °F 100% 30.16 in 2.0 mi North 3.5 mph - 0.01 in   Mist
6:15 PM 44.6 °F 41.4 °F 44.6 °F 100% 30.17 in 1.8 mi North 5.8 mph - N/A   Mist
6:35 PM 42.8 °F 41.1 °F 42.8 °F 100% 30.17 in 3.0 mi NNE 3.5 mph - N/A   Mist
6:55 PM 42.8 °F 40.1 °F 42.8 °F 100% 30.16 in 10.0 mi NE 4.6 mph - N/A   Unknown
7:15 PM 42.8 °F 41.1 °F 42.8 °F 100% 30.16 in 10.0 mi North 3.5 mph - N/A   Unknown
7:35 PM 42.8 °F 41.1 °F 42.8 °F 100% 30.16 in 10.0 mi NNE 3.5 mph - N/A   Unknown
7:55 PM 42.8 °F - 42.8 °F 100% 30.16 in 7.0 mi Calm Calm - N/A   Unknown
8:15 PM 44.6 °F 43.1 °F 44.6 °F 100% 30.16 in 4.0 mi North 3.5 mph - N/A   Mist
8:35 PM 44.6 °F - 44.6 °F 100% 30.17 in 3.0 mi Calm Calm - N/A   Mist
8:55 PM 44.6 °F - 44.6 °F 100% 30.17 in 2.5 mi Calm Calm - N/A   Mist
9:15 PM 42.8 °F 41.1 °F 42.8 °F 100% 30.17 in 2.5 mi NNE 3.5 mph - N/A   Mist
9:35 PM 44.6 °F - 44.6 °F 100% 30.18 in 3.0 mi Calm Calm - N/A   Mist
10:15 PM 44.6 °F - 44.6 °F 100% 30.18 in 4.0 mi Calm Calm - 0.06 in   Mist
10:35 PM 44.6 °F 43.1 °F 44.6 °F 100% 30.18 in 5.0 mi NNE 3.5 mph - 0.08 in   Mist
10:55 PM 42.8 °F 41.1 °F 42.8 °F 100% 30.18 in 5.0 mi North 3.5 mph - 0.12 in   Mist
11:15 PM 42.8 °F 40.1 °F 42.8 °F 100% 30.18 in 5.0 mi North 4.6 mph - N/A   Mist
11:35 PM 42.8 °F 40.1 °F 42.8 °F 100% 30.18 in 4.0 mi NNE 4.6 mph - N/A   Mist
11:55 PM 42.8 °F 39.3 °F 42.8 °F 100% 30.18 in 5.0 mi NNE 5.8 mph - N/A   Mist